LGRP Airport Information

Runway Information
Runway 07 Length 10846 ft width 148 ft
Elevation 16 ft Threshold 0 ft Heading 70
Runway 25 Length 10846 ft Width 148 ft
Elevation 17 ft Threshold 0 ft Heading 250
Airport Frequencies
Type A/G Name RDO Frequency 563.7 MHZ
Type APP Name RODOS APP Frequency 118.25 MHZ
Type ATIS Name ATIS Frequency 126.35 MHZ
Type GND Name GND Frequency 121.7 MHZ
Type TWR Name TWR Frequency 118.2 MHZ
Airport Navaids
Type VOR-DME Name Paradisi Frequency 108600 KHZ
Type VOR-DME Name Rodos Frequency 115800 KHZ
Type TACAN Name Rodos Frequency 117400 KHZ
Type NDB Name Rodos Frequency 339 KHZ
Airport Weather Information & NOTAM
ADDS - METARS form results

(0827 UTC 18 July 2018)
 
METAR text: LGRP 180820Z 26013KT 9000 FEW008 SCT016 27/23 Q1003 NOSIG
Conditions at: LGRP (RHODES/DIAGORAS , GR) observed 0820 UTC 18 July 2018
Temperature: 27.0°C (81°F)
Dewpoint: 23.0°C (73°F) [RH = 79%]
Pressure (altimeter): 29.62 inches Hg (1003.0 mb)
Winds: from the W (260 degrees) at 15 MPH (13 knots; 6.8 m/s)
Visibility: 6 miles (9 km)
Ceiling: at least 12,000 feet AGL
Clouds: few clouds at 800 feet AGL
scattered clouds at 1600 feet AGL
Weather: no significant weather observed at this time

METAR text: LGRP 180750Z 26013KT 9000 SCT008 BKN016 27/23 Q1003 NOSIG
Conditions at: LGRP (RHODES/DIAGORAS , GR) observed 0750 UTC 18 July 2018
Temperature: 27.0°C (81°F)
Dewpoint: 23.0°C (73°F) [RH = 79%]
Pressure (altimeter): 29.62 inches Hg (1003.0 mb)
Winds: from the W (260 degrees) at 15 MPH (13 knots; 6.8 m/s)
Visibility: 6 miles (9 km)
Ceiling: 1600 feet AGL
Clouds: scattered clouds at 800 feet AGL
broken clouds at 1600 feet AGL
Weather: no significant weather observed at this time